EHVL  Vlieland Heliport

Add Bookmark

Vlieland, The Netherlands

Status
Operational
Latitude Longitude
53° 17' 47" N 5° 5' 8" E
53.296665 5.085833
Local (DST + 2) UTC (GMT + 1)
Sep 3, 2014 08:58 Sep 3, 2014 06:58
Sunrise-Sunset Local UTC
Begin Civil Twilight 06:15 04:15
Sunrise 06:51 04:51
Sunset 08:26 18:26
End Civil Twilight 09:02 19:02

Current Weather

METAR Observed IFR
EHVL 030625Z AUTO 10006KT 3200 BR NCD 16/15 Q1025 YLO Wed, Sep 3, 2014 @ 06:25 UTC
(33 Minutes ago)
Instrument Flight Rules
Wind Visibility Clouds Conditions
100° at 6 knots (11 kph) 3000 meters
  • Clear skies
  • Mist
Temperatures Readings Precipitation
Current Temp 16°C (61°F)
Dewpoint 15°C (59°F)
Humidity 94%
Altimeter 30.27"Hg
Sea Level Pressure 1025mb
Field Elevation 16.4'
None Recorded

Additional weather within a 92.6km radius of EHVL

Map ICAO Location
EHMG 36.5km N (347°)
EHLW 45.6km E (099°)
EHKD 46.1km S (206°)
EHMA 61.5km E (068°)
EHQE 75.4km W (236°)

24 Hour Weather History

Loading
-

24 Hour Weather Graphs

Loading
-

CheckWX.com is intended as a tool to help pilots better visualize weather data. It is not intended as a substitute for an official weather briefing obtained from a Flight Service Station. CheckWX.com does not meet the FAA requirements for an official pre-flight weather briefing. Therefore, it's important that pilots still call and obtain an official FSS pre-flight weather briefing.